sensor_id;sensor_type;location;lat;lon;timestamp;P1;durP1;ratioP1;P2;durP2;ratioP2
357;SDS011;167;47.558;7.602;2024-02-14T00:02:12;8.23;;;4.23;;
357;SDS011;167;47.558;7.602;2024-02-14T00:04:38;4.10;;;3.80;;
357;SDS011;167;47.558;7.602;2024-02-14T00:07:04;4.20;;;3.80;;
357;SDS011;167;47.558;7.602;2024-02-14T00:09:31;4.77;;;4.37;;
357;SDS011;167;47.558;7.602;2024-02-14T00:11:56;6.47;;;3.90;;
357;SDS011;167;47.558;7.602;2024-02-14T00:14:22;6.70;;;4.37;;
357;SDS011;167;47.558;7.602;2024-02-14T00:16:49;3.70;;;3.30;;
357;SDS011;167;47.558;7.602;2024-02-14T00:19:16;5.20;;;3.60;;
357;SDS011;167;47.558;7.602;2024-02-14T00:21:42;4.50;;;4.20;;
357;SDS011;167;47.558;7.602;2024-02-14T00:24:08;5.27;;;4.80;;
357;SDS011;167;47.558;7.602;2024-02-14T00:26:34;3.80;;;3.40;;
357;SDS011;167;47.558;7.602;2024-02-14T00:29:00;4.57;;;3.97;;
357;SDS011;167;47.558;7.602;2024-02-14T00:31:27;6.60;;;4.97;;
357;SDS011;167;47.558;7.602;2024-02-14T00:33:53;3.97;;;3.60;;
357;SDS011;167;47.558;7.602;2024-02-14T00:36:19;5.43;;;4.63;;
357;SDS011;167;47.558;7.602;2024-02-14T00:38:45;5.10;;;4.60;;
357;SDS011;167;47.558;7.602;2024-02-14T00:41:11;6.13;;;4.07;;
357;SDS011;167;47.558;7.602;2024-02-14T00:43:37;4.90;;;4.60;;
357;SDS011;167;47.558;7.602;2024-02-14T00:46:03;4.37;;;4.03;;
357;SDS011;167;47.558;7.602;2024-02-14T00:48:30;5.20;;;4.70;;
357;SDS011;167;47.558;7.602;2024-02-14T00:50:56;4.33;;;3.93;;
357;SDS011;167;47.558;7.602;2024-02-14T00:53:21;5.17;;;4.77;;
357;SDS011;167;47.558;7.602;2024-02-14T00:55:47;4.83;;;4.50;;
357;SDS011;167;47.558;7.602;2024-02-14T00:58:13;4.90;;;4.40;;
357;SDS011;167;47.558;7.602;2024-02-14T01:00:39;5.70;;;5.30;;
357;SDS011;167;47.558;7.602;2024-02-14T01:03:06;4.57;;;4.17;;
357;SDS011;167;47.558;7.602;2024-02-14T01:05:33;6.30;;;4.87;;
357;SDS011;167;47.558;7.602;2024-02-14T01:07:59;4.77;;;4.13;;
357;SDS011;167;47.558;7.602;2024-02-14T01:10:25;5.90;;;5.03;;
357;SDS011;167;47.558;7.602;2024-02-14T01:12:51;5.70;;;4.70;;
357;SDS011;167;47.558;7.602;2024-02-14T01:15:17;3.57;;;3.27;;
357;SDS011;167;47.558;7.602;2024-02-14T01:17:43;5.63;;;4.17;;
357;SDS011;167;47.558;7.602;2024-02-14T01:20:12;4.20;;;3.90;;
357;SDS011;167;47.558;7.602;2024-02-14T01:22:38;6.50;;;4.17;;
357;SDS011;167;47.558;7.602;2024-02-14T01:25:04;5.57;;;4.37;;
357;SDS011;167;47.558;7.602;2024-02-14T01:27:31;3.80;;;3.47;;
357;SDS011;167;47.558;7.602;2024-02-14T01:29:57;4.00;;;3.70;;
357;SDS011;167;47.558;7.602;2024-02-14T01:32:23;5.30;;;4.10;;
357;SDS011;167;47.558;7.602;2024-02-14T01:34:49;3.83;;;3.37;;
357;SDS011;167;47.558;7.602;2024-02-14T01:37:15;4.63;;;4.17;;
357;SDS011;167;47.558;7.602;2024-02-14T01:39:42;5.00;;;4.70;;
357;SDS011;167;47.558;7.602;2024-02-14T01:42:08;4.10;;;3.80;;
357;SDS011;167;47.558;7.602;2024-02-14T01:44:33;4.60;;;4.20;;
357;SDS011;167;47.558;7.602;2024-02-14T01:47:01;4.30;;;3.90;;
357;SDS011;167;47.558;7.602;2024-02-14T01:49:27;4.20;;;3.80;;
357;SDS011;167;47.558;7.602;2024-02-14T01:51:53;5.53;;;3.60;;
357;SDS011;167;47.558;7.602;2024-02-14T01:54:21;4.40;;;3.13;;
357;SDS011;167;47.558;7.602;2024-02-14T01:56:47;5.30;;;4.00;;
357;SDS011;167;47.558;7.602;2024-02-14T01:59:13;3.67;;;3.20;;
357;SDS011;167;47.558;7.602;2024-02-14T02:01:41;5.23;;;4.73;;
357;SDS011;167;47.558;7.602;2024-02-14T02:04:07;4.03;;;3.73;;
357;SDS011;167;47.558;7.602;2024-02-14T02:06:33;7.70;;;3.33;;
357;SDS011;167;47.558;7.602;2024-02-14T02:09:00;4.97;;;4.27;;
357;SDS011;167;47.558;7.602;2024-02-14T02:11:26;4.03;;;3.73;;
357;SDS011;167;47.558;7.602;2024-02-14T02:13:52;3.23;;;2.87;;
357;SDS011;167;47.558;7.602;2024-02-14T02:16:18;3.97;;;3.20;;
357;SDS011;167;47.558;7.602;2024-02-14T02:18:45;4.73;;;3.43;;
357;SDS011;167;47.558;7.602;2024-02-14T02:21:11;3.97;;;3.50;;
357;SDS011;167;47.558;7.602;2024-02-14T02:23:38;3.10;;;2.90;;
357;SDS011;167;47.558;7.602;2024-02-14T02:26:06;4.23;;;2.80;;
357;SDS011;167;47.558;7.602;2024-02-14T02:28:33;3.53;;;3.23;;
357;SDS011;167;47.558;7.602;2024-02-14T02:30:58;3.23;;;2.33;;
357;SDS011;167;47.558;7.602;2024-02-14T02:33:24;3.60;;;2.90;;
357;SDS011;167;47.558;7.602;2024-02-14T02:35:51;3.33;;;2.90;;
357;SDS011;167;47.558;7.602;2024-02-14T02:38:17;3.23;;;2.93;;
357;SDS011;167;47.558;7.602;2024-02-14T02:40:44;3.37;;;3.10;;
357;SDS011;167;47.558;7.602;2024-02-14T02:43:10;4.37;;;2.60;;
357;SDS011;167;47.558;7.602;2024-02-14T02:45:37;5.43;;;2.77;;
357;SDS011;167;47.558;7.602;2024-02-14T02:48:04;3.40;;;2.87;;
357;SDS011;167;47.558;7.602;2024-02-14T02:50:30;2.97;;;2.77;;
357;SDS011;167;47.558;7.602;2024-02-14T02:52:56;3.03;;;2.93;;
357;SDS011;167;47.558;7.602;2024-02-14T02:55:22;3.40;;;3.10;;
357;SDS011;167;47.558;7.602;2024-02-14T02:57:48;2.93;;;2.73;;
357;SDS011;167;47.558;7.602;2024-02-14T03:00:14;2.90;;;2.70;;
357;SDS011;167;47.558;7.602;2024-02-14T03:02:41;5.43;;;3.20;;
357;SDS011;167;47.558;7.602;2024-02-14T03:05:09;2.93;;;2.60;;
357;SDS011;167;47.558;7.602;2024-02-14T03:07:38;3.47;;;3.27;;
357;SDS011;167;47.558;7.602;2024-02-14T03:10:04;2.90;;;2.67;;
357;SDS011;167;47.558;7.602;2024-02-14T03:12:30;2.70;;;2.50;;
357;SDS011;167;47.558;7.602;2024-02-14T03:15:02;3.00;;;2.80;;
357;SDS011;167;47.558;7.602;2024-02-14T03:17:29;2.33;;;2.03;;
357;SDS011;167;47.558;7.602;2024-02-14T03:19:55;2.17;;;2.07;;
357;SDS011;167;47.558;7.602;2024-02-14T03:22:21;2.80;;;2.43;;
357;SDS011;167;47.558;7.602;2024-02-14T03:24:47;4.30;;;2.50;;
357;SDS011;167;47.558;7.602;2024-02-14T03:27:13;2.40;;;2.20;;
357;SDS011;167;47.558;7.602;2024-02-14T03:29:42;2.57;;;2.37;;
357;SDS011;167;47.558;7.602;2024-02-14T03:32:09;2.60;;;2.40;;
357;SDS011;167;47.558;7.602;2024-02-14T03:34:35;3.07;;;2.37;;
357;SDS011;167;47.558;7.602;2024-02-14T03:37:01;2.97;;;2.40;;
357;SDS011;167;47.558;7.602;2024-02-14T03:39:28;4.60;;;2.77;;
357;SDS011;167;47.558;7.602;2024-02-14T03:41:54;2.80;;;2.53;;
357;SDS011;167;47.558;7.602;2024-02-14T03:44:21;2.77;;;2.57;;
357;SDS011;167;47.558;7.602;2024-02-14T03:46:47;2.63;;;2.53;;
357;SDS011;167;47.558;7.602;2024-02-14T03:49:13;2.83;;;2.63;;
357;SDS011;167;47.558;7.602;2024-02-14T03:51:39;3.07;;;2.77;;
357;SDS011;167;47.558;7.602;2024-02-14T03:54:05;3.10;;;2.90;;
357;SDS011;167;47.558;7.602;2024-02-14T03:56:31;2.50;;;2.30;;
357;SDS011;167;47.558;7.602;2024-02-14T03:59:00;2.93;;;2.57;;
357;SDS011;167;47.558;7.602;2024-02-14T04:01:27;2.47;;;2.37;;
357;SDS011;167;47.558;7.602;2024-02-14T04:03:54;1.90;;;1.80;;
357;SDS011;167;47.558;7.602;2024-02-14T04:06:20;2.33;;;2.13;;
357;SDS011;167;47.558;7.602;2024-02-14T04:08:46;2.87;;;2.20;;
357;SDS011;167;47.558;7.602;2024-02-14T04:11:12;2.50;;;2.13;;
357;SDS011;167;47.558;7.602;2024-02-14T04:13:39;4.17;;;1.97;;
357;SDS011;167;47.558;7.602;2024-02-14T04:16:05;2.13;;;1.90;;
357;SDS011;167;47.558;7.602;2024-02-14T04:18:31;5.70;;;2.27;;
357;SDS011;167;47.558;7.602;2024-02-14T04:20:57;2.20;;;2.10;;
357;SDS011;167;47.558;7.602;2024-02-14T04:23:24;7.03;;;3.13;;
357;SDS011;167;47.558;7.602;2024-02-14T04:25:51;2.30;;;2.20;;
357;SDS011;167;47.558;7.602;2024-02-14T04:28:16;2.30;;;2.10;;
357;SDS011;167;47.558;7.602;2024-02-14T04:30:42;2.97;;;2.67;;
357;SDS011;167;47.558;7.602;2024-02-14T04:33:08;2.90;;;2.70;;
357;SDS011;167;47.558;7.602;2024-02-14T04:35:34;2.10;;;2.00;;
357;SDS011;167;47.558;7.602;2024-02-14T04:38:00;2.33;;;2.13;;
357;SDS011;167;47.558;7.602;2024-02-14T04:40:27;3.20;;;2.50;;
357;SDS011;167;47.558;7.602;2024-02-14T04:42:53;2.47;;;2.30;;
357;SDS011;167;47.558;7.602;2024-02-14T04:45:19;3.50;;;2.00;;
357;SDS011;167;47.558;7.602;2024-02-14T04:47:45;2.30;;;2.20;;
357;SDS011;167;47.558;7.602;2024-02-14T04:50:11;2.83;;;2.63;;
357;SDS011;167;47.558;7.602;2024-02-14T04:52:39;2.47;;;2.33;;
357;SDS011;167;47.558;7.602;2024-02-14T04:55:05;2.23;;;2.00;;
357;SDS011;167;47.558;7.602;2024-02-14T04:57:31;2.30;;;1.90;;
357;SDS011;167;47.558;7.602;2024-02-14T05:00:00;3.30;;;3.00;;
357;SDS011;167;47.558;7.602;2024-02-14T05:02:26;2.60;;;2.23;;
357;SDS011;167;47.558;7.602;2024-02-14T05:04:53;2.90;;;2.50;;
357;SDS011;167;47.558;7.602;2024-02-14T05:07:20;3.03;;;2.83;;
357;SDS011;167;47.558;7.602;2024-02-14T05:09:46;3.00;;;2.80;;
357;SDS011;167;47.558;7.602;2024-02-14T05:12:15;2.50;;;2.30;;
357;SDS011;167;47.558;7.602;2024-02-14T05:14:41;2.37;;;2.17;;
357;SDS011;167;47.558;7.602;2024-02-14T05:17:07;2.83;;;2.10;;
357;SDS011;167;47.558;7.602;2024-02-14T05:19:33;2.50;;;2.30;;
357;SDS011;167;47.558;7.602;2024-02-14T05:21:59;2.03;;;1.57;;
357;SDS011;167;47.558;7.602;2024-02-14T05:24:25;2.30;;;2.10;;
357;SDS011;167;47.558;7.602;2024-02-14T05:26:55;2.30;;;2.20;;
357;SDS011;167;47.558;7.602;2024-02-14T05:29:21;3.03;;;2.33;;
357;SDS011;167;47.558;7.602;2024-02-14T05:31:47;3.47;;;2.43;;
357;SDS011;167;47.558;7.602;2024-02-14T05:34:13;4.73;;;2.40;;
357;SDS011;167;47.558;7.602;2024-02-14T05:36:40;2.33;;;2.13;;
357;SDS011;167;47.558;7.602;2024-02-14T05:39:07;2.17;;;2.07;;
357;SDS011;167;47.558;7.602;2024-02-14T05:41:33;2.20;;;2.10;;
357;SDS011;167;47.558;7.602;2024-02-14T05:44:00;9.13;;;2.90;;
357;SDS011;167;47.558;7.602;2024-02-14T05:46:26;2.20;;;2.10;;
357;SDS011;167;47.558;7.602;2024-02-14T05:48:53;2.40;;;2.20;;
357;SDS011;167;47.558;7.602;2024-02-14T05:51:19;3.20;;;2.63;;
357;SDS011;167;47.558;7.602;2024-02-14T05:53:45;2.73;;;2.63;;
357;SDS011;167;47.558;7.602;2024-02-14T05:56:11;1.77;;;1.67;;
357;SDS011;167;47.558;7.602;2024-02-14T05:58:37;2.63;;;2.20;;
357;SDS011;167;47.558;7.602;2024-02-14T06:01:03;3.40;;;3.10;;
357;SDS011;167;47.558;7.602;2024-02-14T06:03:30;3.60;;;3.30;;
357;SDS011;167;47.558;7.602;2024-02-14T06:05:56;3.90;;;3.37;;
357;SDS011;167;47.558;7.602;2024-02-14T06:08:22;4.67;;;2.63;;
357;SDS011;167;47.558;7.602;2024-02-14T06:10:48;3.37;;;3.07;;
357;SDS011;167;47.558;7.602;2024-02-14T06:13:15;2.50;;;2.30;;
357;SDS011;167;47.558;7.602;2024-02-14T06:15:41;2.63;;;2.43;;
357;SDS011;167;47.558;7.602;2024-02-14T06:18:06;3.17;;;2.70;;
357;SDS011;167;47.558;7.602;2024-02-14T06:20:32;4.03;;;2.50;;
357;SDS011;167;47.558;7.602;2024-02-14T06:22:58;2.57;;;2.37;;
357;SDS011;167;47.558;7.602;2024-02-14T06:25:24;2.80;;;2.53;;
357;SDS011;167;47.558;7.602;2024-02-14T06:27:51;2.90;;;1.97;;
357;SDS011;167;47.558;7.602;2024-02-14T06:30:19;3.13;;;2.93;;
357;SDS011;167;47.558;7.602;2024-02-14T06:32:45;2.87;;;2.67;;
357;SDS011;167;47.558;7.602;2024-02-14T06:35:11;3.80;;;2.43;;
357;SDS011;167;47.558;7.602;2024-02-14T06:37:39;3.20;;;2.57;;
357;SDS011;167;47.558;7.602;2024-02-14T06:40:06;2.37;;;2.27;;
357;SDS011;167;47.558;7.602;2024-02-14T06:42:33;2.50;;;2.30;;
357;SDS011;167;47.558;7.602;2024-02-14T06:44:59;2.00;;;1.90;;
357;SDS011;167;47.558;7.602;2024-02-14T06:47:25;3.23;;;2.23;;
357;SDS011;167;47.558;7.602;2024-02-14T06:49:54;2.83;;;2.57;;
357;SDS011;167;47.558;7.602;2024-02-14T06:52:20;2.33;;;2.00;;
357;SDS011;167;47.558;7.602;2024-02-14T06:54:46;2.30;;;2.20;;
357;SDS011;167;47.558;7.602;2024-02-14T06:57:13;2.30;;;2.17;;
357;SDS011;167;47.558;7.602;2024-02-14T06:59:39;3.33;;;2.40;;
357;SDS011;167;47.558;7.602;2024-02-14T07:02:05;3.13;;;2.70;;
357;SDS011;167;47.558;7.602;2024-02-14T07:04:31;3.40;;;2.40;;
357;SDS011;167;47.558;7.602;2024-02-14T07:06:57;3.40;;;2.90;;
357;SDS011;167;47.558;7.602;2024-02-14T07:09:23;5.27;;;3.30;;
357;SDS011;167;47.558;7.602;2024-02-14T07:11:50;2.97;;;2.77;;
357;SDS011;167;47.558;7.602;2024-02-14T07:14:18;3.80;;;2.80;;
357;SDS011;167;47.558;7.602;2024-02-14T07:16:44;7.63;;;3.07;;
357;SDS011;167;47.558;7.602;2024-02-14T07:19:10;2.57;;;2.47;;
357;SDS011;167;47.558;7.602;2024-02-14T07:21:36;4.83;;;2.93;;
357;SDS011;167;47.558;7.602;2024-02-14T07:24:03;2.70;;;2.50;;
357;SDS011;167;47.558;7.602;2024-02-14T07:26:30;3.20;;;2.63;;
357;SDS011;167;47.558;7.602;2024-02-14T07:28:56;4.50;;;2.50;;
357;SDS011;167;47.558;7.602;2024-02-14T07:31:22;3.00;;;2.23;;
357;SDS011;167;47.558;7.602;2024-02-14T07:33:48;2.70;;;2.60;;
357;SDS011;167;47.558;7.602;2024-02-14T07:36:18;4.00;;;2.37;;
357;SDS011;167;47.558;7.602;2024-02-14T07:38:44;2.90;;;2.70;;
357;SDS011;167;47.558;7.602;2024-02-14T07:41:10;2.97;;;2.77;;
357;SDS011;167;47.558;7.602;2024-02-14T07:43:36;2.33;;;2.13;;
357;SDS011;167;47.558;7.602;2024-02-14T07:46:02;4.67;;;2.93;;
357;SDS011;167;47.558;7.602;2024-02-14T07:48:30;2.53;;;2.30;;
357;SDS011;167;47.558;7.602;2024-02-14T07:50:56;3.00;;;2.43;;
357;SDS011;167;47.558;7.602;2024-02-14T07:53:24;3.70;;;2.37;;
357;SDS011;167;47.558;7.602;2024-02-14T07:55:50;3.17;;;2.60;;
357;SDS011;167;47.558;7.602;2024-02-14T07:58:17;3.13;;;2.83;;
357;SDS011;167;47.558;7.602;2024-02-14T08:00:43;3.13;;;2.63;;
357;SDS011;167;47.558;7.602;2024-02-14T08:03:09;2.53;;;2.33;;
357;SDS011;167;47.558;7.602;2024-02-14T08:05:35;3.50;;;3.20;;
357;SDS011;167;47.558;7.602;2024-02-14T08:08:01;5.37;;;3.40;;
357;SDS011;167;47.558;7.602;2024-02-14T08:10:27;3.63;;;2.80;;
357;SDS011;167;47.558;7.602;2024-02-14T08:12:53;3.13;;;2.83;;
357;SDS011;167;47.558;7.602;2024-02-14T08:15:19;3.47;;;3.10;;
357;SDS011;167;47.558;7.602;2024-02-14T08:17:46;3.57;;;3.10;;
357;SDS011;167;47.558;7.602;2024-02-14T08:20:12;3.33;;;2.80;;
357;SDS011;167;47.558;7.602;2024-02-14T08:22:38;3.53;;;3.10;;
357;SDS011;167;47.558;7.602;2024-02-14T08:25:04;3.40;;;3.07;;
357;SDS011;167;47.558;7.602;2024-02-14T08:27:30;2.63;;;2.43;;
357;SDS011;167;47.558;7.602;2024-02-14T08:29:56;6.20;;;3.40;;
357;SDS011;167;47.558;7.602;2024-02-14T08:32:22;5.77;;;3.57;;
357;SDS011;167;47.558;7.602;2024-02-14T08:34:48;3.80;;;2.97;;
357;SDS011;167;47.558;7.602;2024-02-14T08:37:17;4.03;;;3.63;;
357;SDS011;167;47.558;7.602;2024-02-14T08:39:43;4.73;;;4.30;;
357;SDS011;167;47.558;7.602;2024-02-14T08:42:09;5.80;;;4.37;;
357;SDS011;167;47.558;7.602;2024-02-14T08:44:35;4.87;;;4.20;;
357;SDS011;167;47.558;7.602;2024-02-14T08:47:02;5.17;;;4.27;;
357;SDS011;167;47.558;7.602;2024-02-14T08:49:29;8.50;;;5.87;;
357;SDS011;167;47.558;7.602;2024-02-14T08:51:55;6.10;;;4.50;;
357;SDS011;167;47.558;7.602;2024-02-14T08:54:21;5.30;;;3.93;;
357;SDS011;167;47.558;7.602;2024-02-14T08:56:48;7.83;;;4.77;;
357;SDS011;167;47.558;7.602;2024-02-14T08:59:14;7.13;;;4.40;;
357;SDS011;167;47.558;7.602;2024-02-14T09:01:40;5.10;;;4.60;;
357;SDS011;167;47.558;7.602;2024-02-14T09:04:06;7.90;;;4.63;;
357;SDS011;167;47.558;7.602;2024-02-14T09:06:32;9.27;;;4.37;;
357;SDS011;167;47.558;7.602;2024-02-14T09:08:58;5.47;;;3.90;;
357;SDS011;167;47.558;7.602;2024-02-14T09:11:24;4.57;;;3.83;;
357;SDS011;167;47.558;7.602;2024-02-14T09:13:51;5.73;;;4.60;;
357;SDS011;167;47.558;7.602;2024-02-14T09:16:20;6.97;;;3.97;;
357;SDS011;167;47.558;7.602;2024-02-14T09:18:48;5.30;;;4.27;;
357;SDS011;167;47.558;7.602;2024-02-14T09:21:14;4.90;;;3.07;;
357;SDS011;167;47.558;7.602;2024-02-14T09:23:41;13.57;;;4.27;;
357;SDS011;167;47.558;7.602;2024-02-14T09:26:07;14.17;;;3.50;;
357;SDS011;167;47.558;7.602;2024-02-14T09:28:33;3.77;;;3.43;;
357;SDS011;167;47.558;7.602;2024-02-14T09:31:00;4.67;;;3.30;;
357;SDS011;167;47.558;7.602;2024-02-14T09:33:28;3.53;;;3.23;;
357;SDS011;167;47.558;7.602;2024-02-14T09:35:55;3.27;;;2.93;;
357;SDS011;167;47.558;7.602;2024-02-14T09:38:21;4.13;;;3.73;;
357;SDS011;167;47.558;7.602;2024-02-14T09:40:48;7.53;;;4.13;;
357;SDS011;167;47.558;7.602;2024-02-14T09:43:28;5.50;;;3.47;;
357;SDS011;167;47.558;7.602;2024-02-14T09:45:57;7.27;;;4.13;;
357;SDS011;167;47.558;7.602;2024-02-14T09:48:23;5.63;;;3.30;;
357;SDS011;167;47.558;7.602;2024-02-14T09:50:51;3.20;;;2.50;;
357;SDS011;167;47.558;7.602;2024-02-14T09:53:18;5.70;;;3.30;;
357;SDS011;167;47.558;7.602;2024-02-14T09:55:45;5.43;;;3.30;;
357;SDS011;167;47.558;7.602;2024-02-14T09:58:11;4.40;;;3.40;;
357;SDS011;167;47.558;7.602;2024-02-14T10:00:38;7.17;;;3.17;;
357;SDS011;167;47.558;7.602;2024-02-14T10:03:05;6.07;;;4.17;;
357;SDS011;167;47.558;7.602;2024-02-14T10:05:32;6.63;;;3.60;;
357;SDS011;167;47.558;7.602;2024-02-14T10:07:58;5.43;;;4.50;;
357;SDS011;167;47.558;7.602;2024-02-14T10:10:24;4.17;;;3.73;;
357;SDS011;167;47.558;7.602;2024-02-14T10:12:50;6.33;;;4.10;;
357;SDS011;167;47.558;7.602;2024-02-14T10:15:16;9.47;;;5.20;;
357;SDS011;167;47.558;7.602;2024-02-14T10:17:43;5.10;;;4.60;;
357;SDS011;167;47.558;7.602;2024-02-14T10:20:09;5.03;;;4.10;;
357;SDS011;167;47.558;7.602;2024-02-14T10:22:36;5.97;;;5.40;;
357;SDS011;167;47.558;7.602;2024-02-14T10:25:02;8.00;;;4.90;;
357;SDS011;167;47.558;7.602;2024-02-14T10:27:29;5.60;;;4.40;;
357;SDS011;167;47.558;7.602;2024-02-14T10:29:59;8.53;;;4.00;;
357;SDS011;167;47.558;7.602;2024-02-14T10:32:25;4.10;;;3.80;;
357;SDS011;167;47.558;7.602;2024-02-14T10:34:51;5.10;;;4.03;;
357;SDS011;167;47.558;7.602;2024-02-14T10:37:17;3.57;;;3.27;;
357;SDS011;167;47.558;7.602;2024-02-14T10:39:44;4.50;;;3.63;;
357;SDS011;167;47.558;7.602;2024-02-14T10:42:12;5.70;;;3.53;;
357;SDS011;167;47.558;7.602;2024-02-14T10:44:38;3.53;;;3.33;;
357;SDS011;167;47.558;7.602;2024-02-14T10:47:05;2.87;;;2.67;;
357;SDS011;167;47.558;7.602;2024-02-14T10:49:32;6.40;;;3.60;;
357;SDS011;167;47.558;7.602;2024-02-14T10:51:58;3.57;;;3.27;;
357;SDS011;167;47.558;7.602;2024-02-14T10:54:27;5.30;;;3.07;;
357;SDS011;167;47.558;7.602;2024-02-14T10:56:53;3.37;;;3.07;;
357;SDS011;167;47.558;7.602;2024-02-14T10:59:22;4.73;;;3.53;;
357;SDS011;167;47.558;7.602;2024-02-14T11:01:49;3.50;;;3.20;;
357;SDS011;167;47.558;7.602;2024-02-14T11:04:16;3.17;;;2.97;;
357;SDS011;167;47.558;7.602;2024-02-14T11:06:44;4.20;;;3.80;;
357;SDS011;167;47.558;7.602;2024-02-14T11:09:11;3.90;;;3.60;;
357;SDS011;167;47.558;7.602;2024-02-14T11:11:38;3.60;;;3.30;;
357;SDS011;167;47.558;7.602;2024-02-14T11:14:04;3.87;;;3.47;;
357;SDS011;167;47.558;7.602;2024-02-14T11:16:31;3.03;;;2.80;;
357;SDS011;167;47.558;7.602;2024-02-14T11:19:11;2.83;;;2.63;;
357;SDS011;167;47.558;7.602;2024-02-14T11:21:41;2.53;;;2.33;;
357;SDS011;167;47.558;7.602;2024-02-14T11:24:11;2.83;;;2.23;;
357;SDS011;167;47.558;7.602;2024-02-14T11:29:05;2.33;;;2.17;;
357;SDS011;167;47.558;7.602;2024-02-14T11:31:33;3.20;;;2.90;;
357;SDS011;167;47.558;7.602;2024-02-14T11:34:03;3.87;;;2.80;;
357;SDS011;167;47.558;7.602;2024-02-14T11:36:30;3.17;;;2.53;;
357;SDS011;167;47.558;7.602;2024-02-14T11:38:57;4.53;;;2.50;;
357;SDS011;167;47.558;7.602;2024-02-14T11:41:23;1.40;;;1.30;;
357;SDS011;167;47.558;7.602;2024-02-14T11:43:52;1.40;;;1.30;;
357;SDS011;167;47.558;7.602;2024-02-14T11:46:18;1.60;;;1.60;;
357;SDS011;167;47.558;7.602;2024-02-14T11:48:44;2.20;;;1.90;;
357;SDS011;167;47.558;7.602;2024-02-14T11:51:12;3.03;;;1.67;;
357;SDS011;167;47.558;7.602;2024-02-14T11:53:38;1.83;;;1.60;;
357;SDS011;167;47.558;7.602;2024-02-14T11:56:06;2.17;;;2.00;;
357;SDS011;167;47.558;7.602;2024-02-14T11:58:32;2.40;;;2.27;;
357;SDS011;167;47.558;7.602;2024-02-14T12:00:59;2.60;;;2.40;;
357;SDS011;167;47.558;7.602;2024-02-14T12:03:31;3.63;;;2.60;;
357;SDS011;167;47.558;7.602;2024-02-14T12:05:58;3.03;;;2.47;;
357;SDS011;167;47.558;7.602;2024-02-14T12:08:24;2.07;;;1.93;;
357;SDS011;167;47.558;7.602;2024-02-14T12:10:50;3.10;;;2.80;;
357;SDS011;167;47.558;7.602;2024-02-14T12:13:20;4.10;;;3.70;;
357;SDS011;167;47.558;7.602;2024-02-14T12:15:47;3.20;;;3.00;;
357;SDS011;167;47.558;7.602;2024-02-14T12:18:13;3.23;;;2.87;;
357;SDS011;167;47.558;7.602;2024-02-14T12:20:40;2.80;;;2.60;;
357;SDS011;167;47.558;7.602;2024-02-14T12:23:06;3.03;;;2.83;;
357;SDS011;167;47.558;7.602;2024-02-14T12:25:33;3.07;;;2.60;;
357;SDS011;167;47.558;7.602;2024-02-14T12:27:59;2.83;;;2.63;;
357;SDS011;167;47.558;7.602;2024-02-14T12:30:44;3.93;;;2.40;;
357;SDS011;167;47.558;7.602;2024-02-14T12:33:11;2.23;;;2.03;;
357;SDS011;167;47.558;7.602;2024-02-14T12:35:37;2.90;;;2.33;;
357;SDS011;167;47.558;7.602;2024-02-14T12:38:07;1.60;;;1.50;;
357;SDS011;167;47.558;7.602;2024-02-14T12:40:35;1.90;;;1.63;;
357;SDS011;167;47.558;7.602;2024-02-14T12:43:01;1.87;;;1.77;;
357;SDS011;167;47.558;7.602;2024-02-14T12:45:27;2.80;;;1.60;;
357;SDS011;167;47.558;7.602;2024-02-14T12:47:53;1.33;;;1.23;;
357;SDS011;167;47.558;7.602;2024-02-14T12:50:19;1.73;;;1.57;;
357;SDS011;167;47.558;7.602;2024-02-14T12:52:45;2.00;;;1.80;;
357;SDS011;167;47.558;7.602;2024-02-14T12:55:11;1.90;;;1.80;;
357;SDS011;167;47.558;7.602;2024-02-14T12:57:38;2.77;;;2.57;;
357;SDS011;167;47.558;7.602;2024-02-14T13:00:05;2.20;;;2.10;;
357;SDS011;167;47.558;7.602;2024-02-14T13:02:33;2.03;;;1.93;;
357;SDS011;167;47.558;7.602;2024-02-14T13:04:59;1.57;;;1.50;;
357;SDS011;167;47.558;7.602;2024-02-14T13:07:27;4.80;;;2.20;;
357;SDS011;167;47.558;7.602;2024-02-14T13:09:53;2.40;;;2.20;;
357;SDS011;167;47.558;7.602;2024-02-14T13:12:20;1.90;;;1.80;;
357;SDS011;167;47.558;7.602;2024-02-14T13:14:46;2.17;;;1.60;;
357;SDS011;167;47.558;7.602;2024-02-14T13:17:12;2.43;;;2.33;;
357;SDS011;167;47.558;7.602;2024-02-14T13:19:39;4.13;;;3.87;;
357;SDS011;167;47.558;7.602;2024-02-14T13:22:05;2.10;;;2.00;;
357;SDS011;167;47.558;7.602;2024-02-14T13:24:31;1.90;;;1.80;;
357;SDS011;167;47.558;7.602;2024-02-14T13:26:57;2.83;;;2.13;;
357;SDS011;167;47.558;7.602;2024-02-14T13:29:23;1.63;;;1.50;;
357;SDS011;167;47.558;7.602;2024-02-14T13:31:50;1.43;;;1.33;;
357;SDS011;167;47.558;7.602;2024-02-14T13:34:16;1.20;;;1.20;;
357;SDS011;167;47.558;7.602;2024-02-14T13:36:44;1.50;;;1.40;;
357;SDS011;167;47.558;7.602;2024-02-14T13:39:10;2.20;;;2.10;;
357;SDS011;167;47.558;7.602;2024-02-14T13:41:37;3.30;;;1.83;;
357;SDS011;167;47.558;7.602;2024-02-14T13:44:04;1.30;;;1.20;;
357;SDS011;167;47.558;7.602;2024-02-14T13:46:30;1.20;;;1.20;;
357;SDS011;167;47.558;7.602;2024-02-14T13:48:56;1.47;;;1.20;;
357;SDS011;167;47.558;7.602;2024-02-14T13:51:22;0.90;;;0.90;;
357;SDS011;167;47.558;7.602;2024-02-14T13:53:48;1.43;;;1.13;;
357;SDS011;167;47.558;7.602;2024-02-14T13:56:14;1.60;;;1.47;;
357;SDS011;167;47.558;7.602;2024-02-14T13:58:41;1.10;;;1.10;;
357;SDS011;167;47.558;7.602;2024-02-14T14:01:07;1.07;;;1.07;;
357;SDS011;167;47.558;7.602;2024-02-14T14:03:33;0.83;;;0.83;;
357;SDS011;167;47.558;7.602;2024-02-14T14:06:02;0.77;;;0.77;;
357;SDS011;167;47.558;7.602;2024-02-14T14:08:30;1.50;;;1.40;;
357;SDS011;167;47.558;7.602;2024-02-14T14:10:56;1.43;;;1.30;;
357;SDS011;167;47.558;7.602;2024-02-14T14:13:22;1.37;;;1.03;;
357;SDS011;167;47.558;7.602;2024-02-14T14:15:48;1.10;;;1.00;;
357;SDS011;167;47.558;7.602;2024-02-14T14:18:14;1.27;;;1.17;;
357;SDS011;167;47.558;7.602;2024-02-14T14:20:40;1.10;;;0.90;;
357;SDS011;167;47.558;7.602;2024-02-14T14:23:06;2.87;;;2.67;;
357;SDS011;167;47.558;7.602;2024-02-14T14:25:34;1.70;;;1.27;;
357;SDS011;167;47.558;7.602;2024-02-14T14:28:02;1.47;;;1.23;;
357;SDS011;167;47.558;7.602;2024-02-14T14:30:28;3.93;;;3.73;;
357;SDS011;167;47.558;7.602;2024-02-14T14:32:54;3.70;;;3.40;;
357;SDS011;167;47.558;7.602;2024-02-14T14:35:21;1.07;;;1.07;;
357;SDS011;167;47.558;7.602;2024-02-14T14:37:47;0.80;;;0.80;;
357;SDS011;167;47.558;7.602;2024-02-14T14:40:13;1.50;;;1.50;;
357;SDS011;167;47.558;7.602;2024-02-14T14:42:39;1.57;;;1.50;;
357;SDS011;167;47.558;7.602;2024-02-14T14:45:05;1.10;;;1.10;;
357;SDS011;167;47.558;7.602;2024-02-14T14:47:31;1.00;;;0.80;;
357;SDS011;167;47.558;7.602;2024-02-14T14:49:57;3.20;;;1.43;;
357;SDS011;167;47.558;7.602;2024-02-14T14:52:23;0.67;;;0.67;;
357;SDS011;167;47.558;7.602;2024-02-14T14:54:49;1.00;;;1.00;;
357;SDS011;167;47.558;7.602;2024-02-14T14:57:15;1.23;;;1.20;;
357;SDS011;167;47.558;7.602;2024-02-14T14:59:41;1.27;;;0.67;;
357;SDS011;167;47.558;7.602;2024-02-14T15:02:08;0.73;;;0.63;;
357;SDS011;167;47.558;7.602;2024-02-14T15:04:34;1.80;;;0.40;;
357;SDS011;167;47.558;7.602;2024-02-14T15:07:02;0.60;;;0.60;;
357;SDS011;167;47.558;7.602;2024-02-14T15:09:29;0.40;;;0.40;;
357;SDS011;167;47.558;7.602;2024-02-14T15:11:55;2.00;;;0.50;;
357;SDS011;167;47.558;7.602;2024-02-14T15:14:22;0.50;;;0.50;;
357;SDS011;167;47.558;7.602;2024-02-14T15:16:48;0.60;;;0.60;;
357;SDS011;167;47.558;7.602;2024-02-14T15:19:14;0.63;;;0.63;;
357;SDS011;167;47.558;7.602;2024-02-14T15:21:40;0.80;;;0.80;;
357;SDS011;167;47.558;7.602;2024-02-14T15:24:06;1.43;;;0.80;;
357;SDS011;167;47.558;7.602;2024-02-14T15:26:32;0.63;;;0.63;;
357;SDS011;167;47.558;7.602;2024-02-14T15:29:14;1.73;;;0.90;;
357;SDS011;167;47.558;7.602;2024-02-14T15:31:58;2.20;;;0.80;;
357;SDS011;167;47.558;7.602;2024-02-14T15:34:43;2.50;;;0.90;;
357;SDS011;167;47.558;7.602;2024-02-14T15:37:09;1.30;;;1.30;;
357;SDS011;167;47.558;7.602;2024-02-14T15:39:36;0.80;;;0.80;;
357;SDS011;167;47.558;7.602;2024-02-14T15:42:02;0.70;;;0.70;;
357;SDS011;167;47.558;7.602;2024-02-14T15:44:28;1.23;;;0.70;;